createdAt,value
2022-12-04T00:00:35.206Z,91.93
2022-12-04T00:03:02.792Z,83.70
2022-12-04T00:05:30.430Z,104.47
2022-12-04T00:07:57.929Z,88.20
2022-12-04T00:10:25.381Z,84.20
2022-12-04T00:12:54.127Z,90.43
2022-12-04T00:15:26.304Z,90.13
2022-12-04T00:17:54.228Z,100.63
2022-12-04T00:20:22.933Z,92.97
2022-12-04T00:22:50.544Z,83.00
2022-12-04T00:25:18.219Z,94.80
2022-12-04T00:27:45.668Z,99.37
2022-12-04T00:30:15.232Z,100.07
2022-12-04T00:32:42.662Z,98.53
2022-12-04T00:35:10.766Z,88.87
2022-12-04T00:37:38.265Z,100.77
2022-12-04T00:40:07.209Z,95.67
2022-12-04T00:42:34.825Z,86.87
2022-12-04T00:45:02.254Z,94.00
2022-12-04T00:47:30.985Z,96.80
2022-12-04T00:49:58.376Z,90.73
2022-12-04T00:52:28.291Z,94.57
2022-12-04T00:54:55.935Z,93.37
2022-12-04T00:57:23.386Z,87.07
2022-12-04T00:59:50.758Z,112.23
2022-12-04T01:02:18.142Z,94.27
2022-12-04T01:04:46.925Z,93.97
2022-12-04T01:07:14.736Z,99.20
2022-12-04T01:09:43.514Z,98.63
2022-12-04T01:12:13.871Z,84.17
2022-12-04T01:14:43.672Z,96.30
2022-12-04T01:17:11.151Z,89.27
2022-12-04T01:19:38.552Z,92.43
2022-12-04T01:22:07.218Z,102.07
2022-12-04T01:24:34.703Z,101.03
2022-12-04T01:27:02.120Z,97.23
2022-12-04T01:29:29.523Z,97.67
2022-12-04T01:31:57.027Z,98.03
2022-12-04T01:34:25.218Z,96.73
2022-12-04T01:36:53.151Z,116.20
2022-12-04T01:39:21.922Z,99.23
2022-12-04T01:41:49.497Z,106.50
2022-12-04T01:44:19.729Z,105.80
2022-12-04T01:46:51.184Z,89.33
2022-12-04T01:49:22.795Z,103.80
2022-12-04T01:51:54.030Z,103.70
2022-12-04T01:54:28.466Z,103.93
2022-12-04T01:57:00.649Z,108.37
2022-12-04T01:59:33.116Z,106.73
2022-12-04T02:02:05.479Z,112.47
2022-12-04T02:04:34.755Z,110.70
2022-12-04T02:07:02.195Z,117.23
2022-12-04T02:09:31.815Z,119.63
2022-12-04T02:12:09.125Z,120.57
2022-12-04T02:14:46.211Z,108.33
2022-12-04T02:17:21.402Z,108.87
2022-12-04T02:20:15.717Z,121.30
2022-12-04T02:26:49.919Z,104.63
2022-12-04T02:29:28.919Z,119.43
2022-12-04T02:32:00.397Z,120.63
2022-12-04T02:34:31.063Z,140.07
2022-12-04T02:37:03.814Z,129.37
2022-12-04T02:39:35.566Z,133.40
2022-12-04T02:42:09.045Z,124.33
2022-12-04T02:44:43.197Z,111.17
2022-12-04T02:47:13.742Z,130.60
2022-12-04T02:49:47.018Z,126.43
2022-12-04T02:52:19.624Z,127.60
2022-12-04T02:54:51.714Z,139.47
2022-12-04T02:57:25.386Z,135.43
2022-12-04T02:59:56.279Z,131.30
2022-12-04T03:02:28.719Z,132.63
2022-12-04T03:04:59.148Z,139.93
2022-12-04T03:07:40.997Z,129.47
2022-12-04T03:10:14.959Z,132.87
2022-12-04T03:12:47.823Z,136.00
2022-12-04T03:15:20.228Z,141.63
2022-12-04T03:17:53.467Z,130.33
2022-12-04T03:20:22.589Z,135.87
2022-12-04T03:22:55.804Z,129.87
2022-12-04T03:25:29.722Z,120.77
2022-12-04T03:28:01.702Z,135.50
2022-12-04T03:30:36.966Z,121.83
2022-12-04T03:33:10.043Z,118.90
2022-12-04T03:35:45.680Z,120.40
2022-12-04T03:38:19.825Z,118.67
2022-12-04T03:40:55.159Z,125.50
2022-12-04T03:43:29.112Z,121.87
2022-12-04T03:46:02.864Z,118.13
2022-12-04T03:48:35.672Z,119.00
2022-12-04T03:51:08.311Z,118.80
2022-12-04T03:53:40.413Z,110.77
2022-12-04T03:56:14.937Z,114.53
2022-12-04T03:58:47.706Z,116.20
2022-12-04T04:01:21.409Z,122.83
2022-12-04T04:03:52.424Z,126.10
2022-12-04T04:06:23.468Z,111.63
2022-12-04T04:08:55.141Z,118.20
2022-12-04T04:11:28.045Z,95.23
2022-12-04T04:14:25.912Z,111.40
2022-12-04T04:17:17.489Z,116.47
2022-12-04T04:20:06.339Z,111.87
2022-12-04T04:22:55.990Z,102.80
2022-12-04T04:25:26.765Z,109.67
2022-12-04T04:27:55.274Z,100.77
2022-12-04T04:30:23.746Z,105.10
2022-12-04T04:32:59.714Z,117.23
2022-12-04T04:35:36.936Z,120.27
2022-12-04T04:38:11.059Z,117.80
2022-12-04T04:40:49.913Z,102.50
2022-12-04T04:43:21.970Z,97.93
2022-12-04T04:45:54.056Z,110.90
2022-12-04T04:48:26.777Z,102.23
2022-12-04T04:50:55.074Z,103.40
2022-12-04T04:53:26.829Z,105.87
2022-12-04T04:55:54.488Z,97.60
2022-12-04T04:58:22.907Z,93.50
2022-12-04T05:00:57.464Z,99.33
2022-12-04T05:03:26.418Z,94.63
2022-12-04T05:05:53.872Z,104.10
2022-12-04T05:08:21.558Z,102.47
2022-12-04T05:10:48.928Z,102.70
2022-12-04T05:13:17.645Z,106.27
2022-12-04T05:15:45.455Z,107.97
2022-12-04T05:18:12.931Z,100.17
2022-12-04T05:20:40.990Z,115.73
2022-12-04T05:23:08.414Z,115.37
2022-12-04T05:25:35.868Z,99.30
2022-12-04T05:28:03.257Z,105.37
2022-12-04T05:30:30.683Z,111.57
2022-12-04T05:32:58.079Z,101.13
2022-12-04T05:35:25.498Z,97.20
2022-12-04T05:37:54.282Z,105.03
2022-12-04T05:40:21.746Z,109.83
2022-12-04T05:42:49.171Z,105.47
2022-12-04T05:45:16.798Z,98.60
2022-12-04T05:47:45.385Z,105.43
2022-12-04T05:50:13.883Z,108.43
2022-12-04T05:52:41.321Z,110.00
2022-12-04T05:55:10.473Z,109.67
2022-12-04T05:57:37.932Z,104.50
2022-12-04T06:00:06.402Z,105.20
2022-12-04T06:02:34.972Z,109.43
2022-12-04T06:05:02.525Z,103.17
2022-12-04T06:07:29.952Z,101.53
2022-12-04T06:09:57.757Z,101.07
2022-12-04T06:12:26.674Z,97.83
2022-12-04T06:14:54.095Z,95.47
2022-12-04T06:17:21.513Z,109.23
2022-12-04T06:19:49.175Z,105.90
2022-12-04T06:22:16.605Z,84.83
2022-12-04T06:24:44.000Z,106.33
2022-12-04T06:27:27.246Z,94.13
2022-12-04T06:29:56.947Z,102.87
2022-12-04T06:32:24.705Z,107.67
2022-12-04T06:34:53.452Z,93.37
2022-12-04T06:37:21.697Z,95.57
2022-12-04T06:39:49.225Z,101.67
2022-12-04T06:42:16.997Z,88.17
2022-12-04T06:44:44.380Z,96.23
2022-12-04T06:47:13.257Z,98.40
2022-12-04T06:49:40.926Z,94.60
2022-12-04T06:52:08.327Z,94.30
2022-12-04T06:54:35.765Z,96.17
2022-12-04T06:57:03.170Z,104.90
2022-12-04T06:59:30.547Z,91.43
2022-12-04T07:01:57.997Z,105.03
2022-12-04T07:04:26.739Z,108.13
2022-12-04T07:06:54.612Z,83.37
2022-12-04T07:09:22.052Z,92.13
2022-12-04T07:11:49.476Z,88.97
2022-12-04T07:14:16.976Z,92.67
2022-12-04T07:16:44.502Z,93.00
2022-12-04T07:19:13.955Z,95.07
2022-12-04T07:21:43.691Z,90.47
2022-12-04T07:24:15.774Z,86.87
2022-12-04T07:26:43.174Z,107.63
2022-12-04T07:29:10.759Z,100.17
2022-12-04T07:31:39.055Z,89.43
2022-12-04T07:34:06.489Z,102.00
2022-12-04T07:36:33.992Z,89.57
2022-12-04T07:39:02.859Z,84.70
2022-12-04T07:41:30.283Z,90.97
2022-12-04T07:43:57.656Z,113.43
2022-12-04T07:46:27.388Z,97.17
2022-12-04T07:48:56.097Z,92.50
2022-12-04T07:51:26.271Z,95.23
2022-12-04T07:53:54.969Z,104.67
2022-12-04T07:56:23.719Z,80.17
2022-12-04T07:58:51.099Z,94.30
2022-12-04T08:01:20.650Z,101.23
2022-12-04T08:03:49.832Z,102.97
2022-12-04T08:06:19.769Z,104.63
2022-12-04T08:08:48.135Z,110.23
2022-12-04T08:11:18.361Z,92.73
2022-12-04T08:13:47.175Z,98.57
2022-12-04T08:16:15.692Z,101.20
2022-12-04T08:18:46.726Z,89.23
2022-12-04T08:21:17.046Z,94.47
2022-12-04T08:23:45.037Z,97.80
2022-12-04T08:26:13.107Z,87.80
2022-12-04T08:28:41.586Z,92.77
2022-12-04T08:31:13.782Z,103.80
2022-12-04T08:33:42.938Z,93.27
2022-12-04T08:36:12.317Z,106.10
2022-12-04T08:38:39.952Z,92.80
2022-12-04T08:41:11.479Z,91.17
2022-12-04T08:43:39.228Z,102.70
2022-12-04T08:46:09.633Z,88.13
2022-12-04T08:48:38.676Z,96.63
2022-12-04T08:51:08.082Z,103.03
2022-12-04T08:53:36.352Z,89.57
2022-12-04T08:56:04.932Z,86.93
2022-12-04T08:58:32.446Z,90.87
2022-12-04T09:01:05.549Z,87.77
2022-12-04T09:03:32.972Z,96.83
2022-12-04T09:06:03.787Z,96.03
2022-12-04T09:08:32.082Z,96.93
2022-12-04T09:11:04.569Z,90.87
2022-12-04T09:13:32.022Z,105.00
2022-12-04T09:15:59.508Z,101.97
2022-12-04T09:18:26.942Z,103.87
2022-12-04T09:20:58.603Z,93.23
2022-12-04T09:23:28.209Z,97.97
2022-12-04T09:25:55.694Z,91.57
2022-12-04T09:28:23.103Z,92.20
2022-12-04T09:30:58.346Z,99.33
2022-12-04T09:33:25.846Z,89.90
2022-12-04T09:35:53.284Z,91.30
2022-12-04T09:38:20.789Z,84.90
2022-12-04T09:40:55.970Z,95.73
2022-12-04T09:43:32.152Z,87.37
2022-12-04T09:46:07.570Z,89.47
2022-12-04T09:48:38.453Z,95.30
2022-12-04T09:51:07.978Z,91.70
2022-12-04T09:53:44.827Z,93.63
2022-12-04T09:56:19.735Z,83.70
2022-12-04T09:58:53.046Z,85.80
2022-12-04T10:01:24.220Z,100.03
2022-12-04T10:03:53.470Z,96.97
2022-12-04T10:06:25.149Z,81.67
2022-12-04T10:08:59.803Z,91.03
2022-12-04T10:11:41.128Z,87.77
2022-12-04T10:14:30.352Z,89.83
2022-12-04T10:17:18.366Z,86.07
2022-12-04T10:19:54.996Z,85.90
2022-12-04T10:22:30.903Z,98.47
2022-12-04T10:25:03.155Z,75.87
2022-12-04T10:27:35.592Z,81.63
2022-12-04T10:30:08.819Z,85.27
2022-12-04T10:32:37.236Z,82.83
2022-12-04T10:35:16.614Z,98.40
2022-12-04T10:37:45.433Z,95.03
2022-12-04T10:40:22.350Z,85.90
2022-12-04T10:42:58.163Z,83.60
2022-12-04T10:45:25.747Z,84.27
2022-12-04T10:47:54.065Z,91.87
2022-12-04T10:50:24.145Z,94.53
2022-12-04T10:52:52.206Z,94.63
2022-12-04T10:55:30.132Z,97.70
2022-12-04T10:57:58.844Z,100.27
2022-12-04T11:00:29.893Z,81.73
2022-12-04T11:03:00.292Z,92.03
2022-12-04T11:05:30.825Z,100.73
2022-12-04T11:07:59.554Z,92.90
2022-12-04T11:10:32.876Z,90.47
2022-12-04T11:13:03.381Z,84.07
2022-12-04T11:15:31.350Z,84.17
2022-12-04T11:18:09.437Z,89.40
2022-12-04T11:20:37.122Z,91.43
2022-12-04T11:23:06.002Z,85.57
2022-12-04T11:25:39.351Z,87.17
2022-12-04T11:28:39.718Z,82.27
2022-12-04T11:31:07.461Z,90.40
2022-12-04T11:33:39.458Z,81.17
2022-12-04T11:36:19.691Z,85.10
2022-12-04T11:38:47.751Z,78.20
2022-12-04T11:41:26.604Z,86.40
2022-12-04T11:43:59.845Z,73.07
2022-12-04T11:46:30.326Z,89.50
2022-12-04T11:48:58.065Z,80.50
2022-12-04T11:51:40.792Z,81.63
2022-12-04T11:54:21.521Z,78.97
2022-12-04T11:56:59.065Z,86.73
2022-12-04T11:59:56.830Z,88.47
2022-12-04T12:02:47.504Z,80.73
2022-12-04T12:05:27.917Z,89.40
2022-12-04T12:08:03.846Z,85.53
2022-12-04T12:10:41.561Z,75.43
2022-12-04T12:13:22.016Z,69.03
2022-12-04T12:15:59.771Z,83.73
2022-12-04T12:18:47.290Z,93.27
2022-12-04T12:21:21.187Z,69.00
2022-12-04T12:24:02.323Z,73.57
2022-12-04T12:26:39.157Z,84.43
2022-12-04T12:29:16.639Z,79.03
2022-12-04T12:32:02.045Z,75.87
2022-12-04T12:34:36.647Z,74.10
2022-12-04T12:37:12.976Z,71.60
2022-12-04T12:39:41.822Z,74.53
2022-12-04T12:42:18.031Z,77.93
2022-12-04T12:44:54.530Z,82.07
2022-12-04T12:47:27.217Z,77.87
2022-12-04T12:50:00.764Z,70.23
2022-12-04T12:52:33.603Z,82.97
2022-12-04T12:55:04.966Z,78.03
2022-12-04T12:57:37.726Z,89.67
2022-12-04T13:00:08.476Z,77.33
2022-12-04T13:02:44.103Z,80.83
2022-12-04T13:05:15.548Z,83.30
2022-12-04T13:07:48.897Z,82.23
2022-12-04T13:10:21.619Z,79.00
2022-12-04T13:12:53.624Z,76.67
2022-12-04T13:15:24.947Z,75.80
2022-12-04T13:17:57.189Z,88.60
2022-12-04T13:20:29.395Z,85.47
2022-12-04T13:23:15.555Z,80.63
2022-12-04T13:25:53.762Z,78.73
2022-12-04T13:28:36.273Z,76.37
2022-12-04T13:31:14.023Z,86.30
2022-12-04T13:34:08.239Z,78.40
2022-12-04T13:36:55.053Z,94.53
2022-12-04T13:40:19.197Z,88.00
2022-12-04T13:42:47.069Z,80.30
2022-12-04T13:45:27.149Z,87.53
2022-12-04T13:47:59.116Z,84.83
2022-12-04T13:50:31.066Z,80.60
2022-12-04T13:52:58.900Z,80.23
2022-12-04T13:55:29.902Z,86.67
2022-12-04T13:57:59.287Z,88.97
2022-12-04T14:00:32.774Z,86.37
2022-12-04T14:03:03.944Z,85.50
2022-12-04T14:05:40.942Z,95.60
2022-12-04T14:08:24.209Z,91.33
2022-12-04T14:11:01.021Z,96.07
2022-12-04T14:13:31.661Z,81.53
2022-12-04T14:16:05.601Z,105.00
2022-12-04T14:18:33.215Z,88.97
2022-12-04T14:21:04.819Z,94.57
2022-12-04T14:23:37.700Z,97.07
2022-12-04T14:26:05.833Z,103.77
2022-12-04T14:28:44.401Z,94.60
2022-12-04T14:31:22.784Z,108.20
2022-12-04T14:33:53.433Z,92.93
2022-12-04T14:36:25.708Z,98.67
2022-12-04T14:39:02.188Z,85.87
2022-12-04T14:41:29.851Z,92.63
2022-12-04T14:43:57.952Z,109.10
2022-12-04T14:46:33.575Z,111.57
2022-12-04T14:49:15.490Z,103.23
2022-12-04T14:51:50.589Z,108.43
2022-12-04T14:54:27.600Z,107.83
2022-12-04T14:57:12.039Z,104.80
2022-12-04T14:59:43.868Z,117.33
2022-12-04T15:02:14.634Z,110.73
2022-12-04T15:04:45.917Z,117.37
2022-12-04T15:07:21.152Z,110.50
2022-12-04T15:10:10.087Z,106.73
2022-12-04T15:12:43.520Z,101.07
2022-12-04T15:15:19.471Z,128.03
2022-12-04T15:17:57.574Z,113.93
2022-12-04T15:20:25.625Z,119.50
2022-12-04T15:22:57.298Z,124.80
2022-12-04T15:25:27.309Z,117.23
2022-12-04T15:28:03.399Z,127.90
2022-12-04T15:30:34.011Z,126.63
2022-12-04T15:33:01.840Z,123.83
2022-12-04T15:35:31.895Z,124.07
2022-12-04T15:38:00.976Z,115.33
2022-12-04T15:40:30.737Z,107.40
2022-12-04T15:43:14.493Z,136.90
2022-12-04T15:45:42.390Z,114.67
2022-12-04T15:48:09.859Z,117.83
2022-12-04T15:50:37.485Z,126.10
2022-12-04T15:53:09.720Z,126.50
2022-12-04T15:55:40.517Z,110.70
2022-12-04T15:58:19.183Z,108.10
2022-12-04T16:00:47.129Z,116.73
2022-12-04T16:03:26.369Z,136.90
2022-12-04T16:06:07.997Z,140.57
2022-12-04T16:08:38.449Z,140.70
2022-12-04T16:11:07.714Z,125.13
2022-12-04T16:13:37.801Z,112.53
2022-12-04T16:16:07.929Z,116.83
2022-12-04T16:18:35.687Z,124.70
2022-12-04T16:21:03.101Z,130.83
2022-12-04T16:23:30.696Z,119.60
2022-12-04T16:25:59.517Z,141.73
2022-12-04T16:28:26.942Z,129.80
2022-12-04T16:30:54.489Z,125.17
2022-12-04T16:33:22.006Z,116.77
2022-12-04T16:35:49.957Z,122.77
2022-12-04T16:38:18.615Z,156.00
2022-12-04T16:40:48.426Z,135.30
2022-12-04T16:43:18.262Z,132.90
2022-12-04T16:45:47.889Z,153.23
2022-12-04T16:48:16.051Z,142.70
2022-12-04T16:50:44.025Z,137.70
2022-12-04T16:53:15.907Z,169.43
2022-12-04T16:55:46.201Z,149.50
2022-12-04T16:58:13.624Z,170.10
2022-12-04T17:00:44.424Z,166.00
2022-12-04T17:03:21.344Z,171.23
2022-12-04T17:05:48.781Z,171.30
2022-12-04T17:08:16.419Z,160.53
2022-12-04T17:10:43.920Z,163.93
2022-12-04T17:13:11.402Z,167.40
2022-12-04T17:15:38.929Z,184.13
2022-12-04T17:18:12.878Z,174.57
2022-12-04T17:20:43.334Z,192.33
2022-12-04T17:23:12.624Z,200.70
2022-12-04T17:25:40.019Z,196.37
2022-12-04T17:28:08.039Z,186.33
2022-12-04T17:30:36.500Z,186.37
2022-12-04T17:33:04.586Z,177.70
2022-12-04T17:35:33.286Z,187.13
2022-12-04T17:38:05.652Z,198.77
2022-12-04T17:40:34.150Z,204.67
2022-12-04T17:43:02.311Z,244.70
2022-12-04T17:45:29.756Z,243.77
2022-12-04T17:47:57.213Z,174.57
2022-12-04T17:50:24.757Z,200.37
2022-12-04T17:52:53.482Z,212.27
2022-12-04T17:55:20.878Z,227.20
2022-12-04T17:57:48.739Z,202.03
2022-12-04T18:00:16.606Z,191.50
2022-12-04T18:02:48.747Z,234.10
2022-12-04T18:05:19.090Z,215.00
2022-12-04T18:07:46.559Z,233.20
2022-12-04T18:10:15.331Z,227.87
2022-12-04T18:12:42.751Z,176.03
2022-12-04T18:15:10.741Z,212.60
2022-12-04T18:17:39.632Z,271.73
2022-12-04T18:20:08.815Z,211.10
2022-12-04T18:22:36.466Z,216.33
2022-12-04T18:25:03.900Z,244.37
2022-12-04T18:27:32.620Z,227.93
2022-12-04T18:30:01.594Z,195.43
2022-12-04T18:32:28.999Z,206.13
2022-12-04T18:34:56.422Z,219.73
2022-12-04T18:37:23.838Z,228.73
2022-12-04T18:39:51.879Z,206.90
2022-12-04T18:42:19.403Z,166.10
2022-12-04T18:44:48.716Z,252.33
2022-12-04T18:47:16.131Z,174.73
2022-12-04T18:49:43.521Z,242.37
2022-12-04T18:52:10.931Z,235.53
2022-12-04T18:54:38.325Z,206.10
2022-12-04T18:57:05.713Z,226.70
2022-12-04T18:59:33.261Z,243.77
2022-12-04T19:02:02.019Z,173.70
2022-12-04T19:04:33.219Z,215.40
2022-12-04T19:07:00.630Z,234.73
2022-12-04T19:10:08.851Z,211.10
2022-12-04T19:12:17.352Z,210.00
2022-12-04T19:14:44.761Z,158.77
2022-12-04T19:17:13.534Z,186.60
2022-12-04T19:19:43.458Z,194.03
2022-12-04T19:22:10.846Z,196.17
2022-12-04T19:24:38.443Z,208.17
2022-12-04T19:27:11.095Z,210.07
2022-12-04T19:29:38.920Z,217.60
2022-12-04T19:32:06.616Z,206.70
2022-12-04T19:34:36.056Z,192.57
2022-12-04T19:37:03.824Z,216.17
2022-12-04T19:39:31.263Z,199.50
2022-12-04T19:41:58.675Z,177.03
2022-12-04T19:44:47.846Z,174.60
2022-12-04T19:47:13.516Z,144.17
2022-12-04T19:49:42.233Z,167.77
2022-12-04T19:52:09.686Z,148.33
2022-12-04T19:54:37.154Z,84.50
2022-12-04T19:57:04.750Z,146.37
2022-12-04T19:59:36.970Z,134.27
2022-12-04T20:02:04.549Z,167.30
2022-12-04T20:04:31.982Z,144.07
2022-12-04T20:07:00.723Z,160.27
2022-12-04T20:09:28.165Z,149.27
2022-12-04T20:11:55.767Z,153.57
2022-12-04T20:14:26.959Z,147.87
2022-12-04T20:16:54.368Z,155.73
2022-12-04T20:19:22.192Z,161.87
2022-12-04T20:21:54.816Z,158.17
2022-12-04T20:24:26.481Z,162.77
2022-12-04T20:26:53.922Z,162.83
2022-12-04T20:29:21.606Z,140.70
2022-12-04T20:31:49.130Z,152.00
2022-12-04T20:34:18.695Z,178.23
2022-12-04T20:36:48.162Z,146.17
2022-12-04T20:39:18.123Z,148.87
2022-12-04T20:41:47.645Z,148.50
2022-12-04T20:44:17.363Z,168.90
2022-12-04T20:46:45.728Z,173.40
2022-12-04T20:49:22.060Z,175.40
2022-12-04T20:51:51.149Z,147.80
2022-12-04T20:54:21.006Z,180.03
2022-12-04T20:56:52.710Z,187.30
2022-12-04T20:59:24.845Z,143.83
2022-12-04T21:01:53.084Z,133.53
2022-12-04T21:04:20.684Z,161.57
2022-12-04T21:06:48.202Z,170.33
2022-12-04T21:09:18.490Z,149.97
2022-12-04T21:11:48.351Z,175.30
2022-12-04T21:14:39.413Z,149.60
2022-12-04T21:17:09.526Z,198.77
2022-12-04T21:19:37.142Z,148.90
2022-12-04T21:22:04.959Z,198.40
2022-12-04T21:24:37.214Z,151.57
2022-12-04T21:27:04.920Z,155.47
2022-12-04T21:29:34.645Z,183.03
2022-12-04T21:32:02.128Z,137.27
2022-12-04T21:34:30.109Z,173.83
2022-12-04T21:36:57.761Z,159.37
2022-12-04T21:39:25.613Z,171.23
2022-12-04T21:42:11.209Z,164.13
2022-12-04T21:44:39.929Z,166.27
2022-12-04T21:47:07.400Z,169.60
2022-12-04T21:49:34.841Z,187.97
2022-12-04T21:52:04.332Z,172.20
2022-12-04T21:54:32.043Z,199.37
2022-12-04T21:56:59.568Z,191.73
2022-12-04T21:59:27.555Z,159.97
2022-12-04T22:01:56.302Z,184.60
2022-12-04T22:04:23.974Z,216.90
2022-12-04T22:06:54.585Z,186.73
2022-12-04T22:09:22.324Z,169.03
2022-12-04T22:11:49.847Z,167.00
2022-12-04T22:14:17.238Z,197.70
2022-12-04T22:16:44.715Z,194.63
2022-12-04T22:19:14.250Z,201.67
2022-12-04T22:21:41.848Z,168.37
2022-12-04T22:24:10.501Z,177.97
2022-12-04T22:26:38.703Z,229.33
2022-12-04T22:29:27.012Z,147.47
2022-12-04T22:31:54.668Z,149.97
2022-12-04T22:34:23.570Z,168.87
2022-12-04T22:36:51.344Z,190.27
2022-12-04T22:39:18.744Z,178.67
2022-12-04T22:41:46.196Z,164.63
2022-12-04T22:44:13.592Z,175.63
2022-12-04T22:46:41.208Z,190.57
2022-12-04T22:49:08.716Z,179.23
2022-12-04T22:51:37.529Z,169.93
2022-12-04T22:54:06.348Z,104.37
2022-12-04T22:56:34.411Z,94.13
2022-12-04T22:59:01.896Z,106.33
2022-12-04T23:01:31.490Z,126.17
2022-12-04T23:03:59.794Z,104.97
2022-12-04T23:06:28.941Z,154.77
2022-12-04T23:08:59.549Z,131.10
2022-12-04T23:11:28.266Z,164.33
2022-12-04T23:13:57.490Z,155.23
2022-12-04T23:16:26.936Z,170.20
2022-12-04T23:18:54.640Z,196.17
2022-12-04T23:21:23.289Z,168.40
2022-12-04T23:23:52.644Z,159.80
2022-12-04T23:26:23.296Z,133.77
2022-12-04T23:28:50.741Z,161.77
2022-12-04T23:31:20.990Z,142.03
2022-12-04T23:33:48.560Z,172.03
2022-12-04T23:36:16.581Z,162.03
2022-12-04T23:38:45.122Z,174.87
2022-12-04T23:41:14.214Z,162.93
2022-12-04T23:43:43.802Z,169.87
2022-12-04T23:46:12.903Z,192.33
2022-12-04T23:48:41.513Z,154.83
2022-12-04T23:51:09.597Z,151.03
2022-12-04T23:53:37.484Z,189.17
2022-12-04T23:56:08.695Z,179.50
2022-12-04T23:58:37.171Z,201.93
